WEATHER DATA

TODAY
Time Temp. Dewp. Hum. Wind dir Wind speed Wind gust Bar. 1h Prec. 24h Prec.
00:02 1.6 0.4 92 0 0.6 1010.2 0.0000 0.0000
00:12 1.5 0.3 92 0 0.6 1010.2 0.0000 0.0000
00:22 1.4 0.2 92 0 0.6 1010.3 0.0000 0.0000
00:33 1.2 0 92 8 0.3 0.6 1010.5 0.0000 0.0000
00:42 1.2 0 92 0 0.6 1010.6 0.0000 0.0000
00:52 1.1 0 92 270 0.3 0.6 1010.8 0.0000 0.0000
01:03 1.1 0 92 0 0.6 1010.9 0.0000 0.0000
01:13 1 -0.1 92 45 0.3 0.6 1011 0.0000 0.0000
01:23 0.9 -0.2 92 225 0.3 0.6 1011.1 0.0000 0.0000
01:33 0.8 -0.3 92 315 0.3 0.6 1011.2 0.0000 0.0000
01:43 0.8 -0.3 92 324 0.3 0.6 1011.3 0.0000 0.0000
01:53 0.7 -0.4 92 270 0.3 0.6 1011.3 0.0000 0.0000
02:03 0.6 -0.5 92 270 0.3 0.6 1011.2 0.0000 0.0000
02:14 0.5 -0.6 92 306 0.3 0.6 1011.3 0.0000 0.0000
02:24 0.4 -0.7 92 270 0.3 0.6 1011.4 0.0000 0.0000
02:33 0.3 -0.7 92 315 0.3 0.6 1011.3 0.0000 0.0000
02:43 0.3 -0.7 92 305 0.3 0.6 1011.1 0.0000 0.0000
02:54 0.2 -0.8 92 180 0.3 0.6 1011.1 0.0000 0.0000
03:04 0.2 -0.8 92 322 0.3 0.6 1011.1 0.0000 0.0000
03:14 0.1 -0.9 92 320 0.3 0.6 1010.9 0.0000 0.0000
03:24 0.1 -0.9 92 217 0.3 1.1 1011 0.0000 0.0000
03:34 0.1 -0.9 92 217 0.3 1.1 1011.1 0.0000 0.0000
03:44 0 -1 92 270 0.3 0.6 1011.2 0.0000 0.0000
03:52 -0.1 -1.1 92 270 0.3 0.6 1011.2 0.0000 0.0000
04:01 -0.1 -1.1 92 270 0.3 0.6 1011.3 0.0000 0.0000
04:11 -0.3 -1.3 92 270 0.3 0.6 1011.3 0.0000 0.0000
04:22 -0.4 -1.4 92 270 0.3 0.6 1011.3 0.0000 0.0000
04:32 -0.5 -1.5 92 270 0.3 1.1 1011.3 0.0000 0.0000
04:42 -0.5 -1.5 92 270 0.3 1.1 1011.4 0.0000 0.0000
04:52 -0.5 -1.4 93 270 0.3 1.1 1011.5 0.0000 0.0000
05:02 -0.6 -1.5 93 236 0.6 1.4 1011.5 0.0000 0.0000
05:12 -0.6 -1.5 93 241 0.6 1.4 1011.6 0.0000 0.0000
05:22 -0.7 -1.6 93 239 0.6 1.4 1011.7 0.0000 0.0000
05:33 -0.7 -1.6 93 235 0.6 1.1 1011.8 0.0000 0.0000
05:42 -0.7 -1.6 93 239 1.1 1.4 1012 0.0000 0.0000
05:52 -0.8 -1.7 93 247 1.1 1.7 1012 0.0000 0.0000
06:03 -0.8 -1.7 93 234 1.4 1.9 1012.1 0.0000 0.0000
06:13 -0.8 -1.7 93 246 1.4 2.5 1012.3 0.0000 0.0000
06:23 -0.8 -1.7 93 244 1.4 1.9 1012.2 0.0000 0.0000
06:32 -0.8 -1.7 93 245 1.4 1.9 1012.3 0.0000 0.0000
06:43 -0.9 -1.8 93 248 1.1 1.9 1012.3 0.0000 0.0000
06:53 -0.9 -1.8 93 252 1.1 1.7 1012.3 0.0000 0.0000
07:03 -1 -1.9 93 250 1.1 1.9 1012.3 0.0000 0.0000
07:13 -1.1 -2 93 249 1.4 1.9 1012.4 0.0000 0.0000
07:23 -1.1 -2 93 247 1.1 1.9 1012.4 0.0000 0.0000
07:33 -1.2 -2.1 93 249 1.4 1.9 1012.5 0.0000 0.0000
07:43 -1.1 -2 93 240 1.4 1.9 1012.4 0.0000 0.0000
07:54 -1.1 -2 93 244 1.4 2.5 1012.4 0.0000 0.0000
08:04 -1.1 -2 93 234 1.7 2.5 1012.5 0.0000 0.0000
08:13 -1 -1.9 93 236 1.9 3.1 1012.5 0.0000 0.0000
08:24 -0.8 -1.7 93 232 1.7 2.8 1012.6 0.0000 0.0000
08:34 -0.7 -1.6 93 234 1.4 2.5 1012.7 0.0000 0.0000
08:44 -0.5 -1.4 93 233 1.1 1.9 1012.8 0.0000 0.0000
08:54 -0.3 -1.2 93 237 1.9 2.8 1012.9 0.0000 0.0000
09:05 -0.1 -1 93 236 1.9 3.1 1013 0.0000 0.0000
09:14 0.1 -0.8 93 226 3.1 4.4 1012.9 0.0000 0.0000
09:24 0.3 -0.6 93 229 2.5 3.3 1013 0.0000 0.0000
09:34 0.7 -0.3 93 229 1.9 3.3 1013.1 0.0000 0.0000
09:45 1.3 0.3 93 232 1.7 2.8 1013 0.0000 0.0000
09:55 2.2 1.2 93 236 1.4 1.9 1013 0.0000 0.0000
10:04 2.9 1.9 93 327 1.1 1.9 1012.9 0.1150 0.1000
10:15 3.8 2.8 93 36 0.3 1.1 1012.9 0.1150 0.1000
10:25 4.7 3.7 93 46 1.1 1.7 1012.9 0.1150 0.1000
10:35 5.4 4.4 93 38 0.6 1.4 1012.9 0.1150 0.1000
10:45 6.4 5.4 93 90 0.3 1.4 1012.9 0.1150 0.1000
10:55 7.4 6.3 93 243 0.6 1.9 1012.8 0.1150 0.1000
11:05 8.3 6.4 88 186 1.1 3.6 1012.8 0.0000 0.1000
11:15 8.8 5.9 82 162 0.6 1.9 1012.8 0.0000 0.1000
11:26 9.3 5.5 77 161 0.6 1.4 1012.8 0.0000 0.1000
11:36 9.9 5.3 73 135 0.6 1.9 1012.7 0.0000 0.1000
11:45 10.3 4.7 68 141 1.1 2.8 1012.6 0.0000 0.1000
11:55 10.5 4.4 66 159 1.1 2.8 1012.6 0.0000 0.1000
12:06 10.5 4.9 68 225 0.6 1.9 1012.5 0.0000 0.1000
12:16 10.8 4.9 67 172 1.1 3.1 1012.4 0.0000 0.1000
12:26 11.1 5.4 68 104 1.1 3.1 1012.3 0.0000 0.1000
12:36 11.4 5.1 65 131 0.6 2.5 1012.2 0.0000 0.1000
12:46 11.7 4.7 62 135 1.1 1.9 1012.1 0.1150 0.2000
13:06 12.1 4.3 59 137 1.1 2.8 1012 0.1150 0.2000
13:17 12.1 5 62 110 0.6 1.9 1011.7 0.1150 0.2000
13:27 12.3 5 61 90 0.6 1.9 1011.5 0.1150 0.2000
13:36 12.2 4.7 60 139 0.6 1.7 1011.6 0.1150 0.2000
13:47 12.1 4.8 61 126 0.6 2.5 1011.5 0.0000 0.2000
13:57 12.1 4.3 59 155 1.1 3.3 1011.4 0.0000 0.2000
14:07 12.1 4.3 59 90 0.6 2.5 1011.2 0.0000 0.2000
14:17 12.2 4.4 59 131 1.1 3.1 1011.2 0.0000 0.2000
14:27 12.2 3.9 57 90 0.6 2.5 1011 0.0000 0.2000
14:37 12.3 4 57 153 1.1 3.1 1011 0.0000 0.2000
14:47 12.4 4.1 57 169 1.1 3.3 1010.9 0.0000 0.2000
14:57 12.4 3.6 55 171 1.1 3.1 1010.8 0.0000 0.2000
15:08 12.2 3.9 57 144 1.1 3.3 1010.6 0.0000 0.2000
15:17 12.2 4.2 58 135 1.1 3.1 1010.6 0.0000 0.2000
15:27 12.1 4.6 60 246 1.1 4.2 1010.6 0.0000 0.2000
15:38 12.1 4.3 59 135 0.6 1.7 1010.5 0.0000 0.2000
15:48 11.9 4.2 59 188 1.1 2.5 1010.4 0.0000 0.2000
15:58 11.7 4.2 60 130 0.6 2.5 1010.3 0.0000 0.2000
16:08 11.5 4 60 162 1.1 2.8 1010.3 0.0000 0.2000
16:18 11.2 4.2 62 90 0.6 1.7 1010.2 0.0000 0.2000
16:28 11.1 3.9 61 149 0.6 2.8 1010.2 0.0000 0.2000
16:38 10.9 3.9 62 154 1.1 4.2 1010.1 0.0000 0.2000
16:49 10.8 4 63 90 0.6 2.5 1010 0.0000 0.2000
16:58 10.7 4.2 64 135 1.1 3.3 1010 0.0000 0.2000
17:08 10.6 4.1 64 186 0.6 1.7 1009.9 0.0000 0.2000
17:18 10.5 4.4 66 114 0.6 2.8 1010 0.0000 0.2000
17:29 10.4 4.3 66 130 0.6 3.1 1010 0.0000 0.2000
17:39 10.3 4.4 67 108 0.6 1.4 1010 0.0000 0.2000
17:49 10.1 4.7 69 90 0.3 1.1 1010 0.0000 0.2000
17:59 9.9 4.7 70 90 0.3 1.4 1010.1 0.0000 0.2000
18:09 9.7 4.7 71 90 0.6 1.4 1010.1 0.0000 0.2000
18:19 9.4 4.8 73 90 0.3 1.1 1010.1 0.0000 0.2000
18:29 8.9 4.7 75 90 0.3 0.6 1010.3 0.0000 0.2000
18:40 8.4 4.6 77 90 0.3 1.1 1010.4 0.0000 0.2000
18:49 8 4.4 78 90 0.3 1.1 1010.5 0.0000 0.2000

DAY STATISTIC

2024-03-04
TEMPERATURE
AVERAGE
4.8
HIGH
12.4
14:47
LOW
-1.2
07:33
PRESSURE
AVERAGE
1011.5
HIGH
1013.1
09:34
LOW
1009.9
17:08
DEWPOINT
AVERAGE
1.5
HIGH
6.4
11:05
LOW
-2.1
07:33
HUMIDITY
AVERAGE
81
HIGH
93
04:52
LOW
55
14:57
WIND SPEED
AVERAGE
0.8
HIGH
3.1
09:14
WIND GUST
AVERAGE
1.8
HIGH
4.4
09:14
WIND DIRECTION
PREVAILING
SW
27.7%
N
0.9
NE
3.6
E
14.3
SE
17.0
S
9.8
SW
27.7
W
15.2
NW
7.1
PRECIPITATION
RAIN HOUR
0.1
RAIN DAY
0.2
TEMPERATURE (°C)
LOW
-1.2
HIGH
12.4
AVERAGE
4.8
PRESSURE (hpa)
LOW
1009.9
HIGH
1013.1
AVERAGE
1011.5
DEVICE